Spen 20 External Results
Liversedge
11 Mar 18
Has your performance not been assigned to your profile yet? Just click the envelope Notify beside your performance below to notify us and get it on your profile.
Head to Head - to compare runners check 2 or more boxes below and then click
             
 
20M
PosGunName AG ClubSBPBHC  
11:53:35Scott Harrington SBV35MOtley1:53:351:52:02-3.4 
21:54:58Lewis Gamble-Thompson PBSENMNew Marske1:54:581:54:58-4.4 
32:00:05Ed Hyland PBSENMStainland2:00:052:00:051.9 
42:01:08Neal Emmerson SBV35MRadcliffe2:01:082:00:21-1.1Click your Clock logo
52:02:28Phil Elliott PBV40MKnavesmire2:02:282:02:282.1 
62:04:55Will Kerr SBV40MSaltaire Striders/Bradford Airedale2:04:552:04:12-0.5 
72:05:38Simon Spears PBV35MAckworth2:05:382:05:386.8 
82:06:16Tom Thomas PBSENMHyde Park Harriers2:06:162:06:160.0 
92:07:26Andrew Bennett PBV35MValley Striders2:07:262:06:153.4 
102:07:48Chris Ward SBSENMWakefield2:07:482:04:132.1 
112:08:28Jonathan Cleaver PBV35MClayton le Moors2:08:281:55:40-1.3 
122:08:49Ian Richardson PBV35MWakefield2:08:492:08:492.0Click your Clock logo
132:09:07Tom Jagger PBV35MStadium Runners2:09:072:02:41-0.4 
142:09:52Simon Lambert SBV35MUnattached2:09:522:06:050.7Click your Clock logo
152:10:11Stuart Tucker PBV40MSwinton2:10:112:10:111.8Click your Clock logo
162:10:33Matthew Pinnock PBSENMPudsey Pacers2:10:332:10:334.3Click your Clock logo
172:10:56Andrew Hebden SENMMorpeth    
182:11:15Richard Stevenson PBV40MClayton le Moors/Unattached2:11:152:11:155.3 
192:12:39Fiona Davies PBV40WRotherham2:12:392:12:395.5 
202:12:51Edward Revell PBV40MSpenborough2:12:512:10:573.0 
212:13:21Daniel Bird SBSENMSwinton2:13:212:00:461.9 
222:13:25Tony Flanagan SBV50MSwinton2:13:252:05:573.8 
232:13:53Ian Maudsley PBV35MSt. Theresa's2:13:532:13:534.2 
242:14:08Glenton Johnson SBV40MSt. Theresa's2:14:082:11:042.5 
252:14:59Matthew Nowell PBV35MSaltaire Striders/Bradford Airedale2:14:592:14:591.5 
262:15:40Jon Pinder SBV35MKnavesmire2:15:402:12:433.1 
272:15:55Michael Smith SENMPocklington    
282:15:59Kevin Ryan SBV40MSwinton2:15:592:13:575.4 
292:16:02Neal Edmondsen SENMHorsforth    
302:16:42Ian Cronshaw PBSENMSwinton2:16:422:16:422.6 
312:18:21Chris Jefferies PBV45MBillingham2:18:212:18:215.4 
322:19:12David Blow V50M     
332:19:20Zanthe Wray PBSENWHallamshire/Sheffield Uni2:19:202:19:205.1 
342:20:33Richard Hirst PBV35MSpenborough2:20:332:20:3311.4 
352:21:07Kevin Lister  V45MNorth East Vets2:19:202:12:2711.4 
362:21:20Simon Brady PBV50MQueensbury2:21:202:21:206.5 
372:21:27Ian Willis PBV45MKeighley & Craven2:21:272:21:272.6 
382:21:34Mathew Richardson SENM     
392:22:04Jonathan Young PBSENMKirkstall2:22:042:22:04-1.1 
402:22:10Carl Heron PBV55MQueensbury2:22:102:22:106.5 
412:22:20Karl Field SENM     
422:22:24Jason Higgins  SENMKnavesmire2:16:342:16:345.7 
432:22:29Caroline Hoath PBV40WMeltham2:22:292:22:2910.6 
442:22:45Terry Midgley SBV45MValley Striders2:22:452:13:4511.9 
452:22:59Chris Jones SBV50MWharfedale2:22:592:21:354.5 
462:23:39Rebecca Winter SBSENWAckworth2:23:392:15:562.3Click your Clock logo
472:23:55Lindsey Clegg PBV35WHorsforth Harriers2:23:552:23:555.9 
482:24:56Andrew Davies SBV35MBillingham2:24:562:12:336.1 
492:25:11Jenni Muston SBV40WSpenborough2:25:112:15:506.8 
502:25:17Ryan Barker SBV45MHalifax2:25:172:02:103.7 
512:25:28Daniel Plant SBV35MClayton le Moors2:25:282:19:319.2 
522:26:02Paul Foster V55M     
532:26:29Andrew Byram PBV40MDewsbury2:26:292:26:296.2 
542:27:02Gerard Skippins SBV40MSpenborough2:27:022:24:016.5 
552:27:08Sam Blashard SENMCalder Valley    
562:27:16Tristan Featherby PBSENMPocklington2:27:162:18:424.7Click your Clock logo
572:27:54Vincent Jensen PBV35MNorthwich2:27:542:27:5412.8 
582:28:24Neil Thompson SBV40MFitmums & Friends2:28:242:17:4914.1 
592:28:35Steve Tether PBV45MUnattached2:25:092:02:022.2 
602:29:10Craig Thompson SBSENMRoberttown2:29:102:18:444.6 
612:29:12Shamiso Sisimayi  V35WHarrogate/Zimbabwe2:23:512:22:196.8 
622:29:33Joseph Baker  V35MStadium Runners2:23:572:12:42-2.6 
632:29:40Ian Ogden SBV45MSpenborough/Saltaire Striders2:29:402:22:065.7 
642:29:56Adam Moger PBV40MKirkstall/Leeds & Bradford TC2:29:562:29:565.4 
652:31:05Ewan Cochrane PBV35MKnavesmire2:31:052:31:056.6 
662:31:16Richard Kennedy-Joyce SBSENMKirkstall2:31:162:14:1317.3 
672:31:34Mark Yates SBV45MKingstone2:31:342:25:0417.1 
682:31:48Amy Young SBSENWHyde Park Harriers2:31:482:23:224.2 
692:32:32Tara Spillings SBSENWUnattached2:32:322:22:076.2 
702:33:32Adrian Sell PBV35MSaddleworth/Wootton RR2:33:322:33:329.5 
712:33:58Richard Aiston PBV55MDewsbury2:33:582:33:5816.7 
722:34:15Sian Elizabeth Evans  SENWSteel City2:21:162:17:565.8 
732:34:34Jon Wilson SBV40MCity of Hull/Selby2:34:342:25:005.6Click your Clock logo
742:34:51Megan Button PBSENWBarnsley AC/Penistone2:34:512:34:5121.4 
752:34:52Oliver Pike SBV35MPenistone2:34:522:22:205.6 
762:34:53Nicholas Tutill PBV40MKnavesmire2:34:532:34:5321.2 
772:35:51Julie Masterman SBV50WGoole Viking Striders2:35:512:21:478.8 
782:37:19David Ingle SBV55MHalifax2:37:192:32:007.4 
792:37:42Dave Butler PBV45MSpenborough2:37:422:37:428.4 
802:38:15Hayley Nancolas PBV35WValley Striders2:38:152:38:157.3 
812:38:24Andrew Wiggins SBV45MHalifax/Stainland2:38:242:17:546.2 
822:39:01Richard Harrison SBV45MSelby2:39:012:13:492.5Click your Clock logo
832:39:13Vincent Baker PBSENMSteel City2:39:132:39:1311.0 
842:39:15Stuart Whale PBV45MAckworth2:39:152:39:1511.5 
852:39:16Simon Edwards-Barber PBSENMAckworth2:39:162:39:163.8 
862:40:19Emer Dudley SBV55WRoberttown2:40:192:26:3810.9 
872:40:25Sue Straw PBV45WKeighley & Craven2:40:252:40:2515.2Click your Clock logo
882:41:00Clare Rowntree SBSENWKnavesmire2:41:002:34:338.4 
892:41:12Andrew Hilton V40M     
902:42:00Nuno César de Sá PBV40MSkyrac2:42:002:42:008.9Click your Clock logo
912:42:00Rebecca Cesar de Sa PBV40WSkyrac2:42:002:42:0011.9 
922:42:12Nicola Blyth PBV40WWhite City (Hull)2:42:122:42:1219.7Click your Clock logo
932:42:29Rebecca Gray PBSENWHyde Park Harriers2:42:292:42:298.3 
942:43:19Paul Grist  V50MKirkstall2:37:202:37:206.0 
952:43:32Paul Dickens PBSENMHyde Park Harriers2:43:322:43:3213.1 
962:44:00Rowan Temple PBSENMKirkstall2:44:002:44:006.5 
972:44:23Emma Warner SBV40WWetherby2:44:232:35:1214.5 
982:44:27Paul Smith PBV50MDewsbury2:44:272:44:2711.7 
992:44:35Ed Senior PBSENMRoberttown2:44:352:44:3512.8 
1002:45:55Mathew Radbourne V45M     
1012:46:39Janine Fallon SBV40WBlackburn/Lancashire Constabulary2:46:392:33:2213.6 
1022:46:44Idris Mansoor SBV40MDewsbury2:46:442:34:4021.3 
1032:46:48Emily Turner PBSENWHorsforth Harriers2:46:482:46:4825.5 
1042:46:50Ann Foster V45WWetherby    
1052:47:09Rachel Ball V35WSunderland    
1062:47:14Michael Tinker V45M     
1072:47:22John Parry V50M     
1082:47:34Sara Harrison PBV45WSelby2:47:342:47:3412.6 
1092:48:21Beth Rendall PBU23WHyde Park Harriers2:48:212:48:2121.2 
1102:49:03Matt Worsman SENM     
1112:49:58Christopher Gill PBV70MSt. Theresa's2:49:582:49:5814.6 
1122:50:01Clare Evans SBSENWHyde Park Harriers2:50:012:49:5812.5Click your Clock logo
1132:50:56Justin Birtwistle PBV40MClayton le Moors2:50:562:50:5615.8 
1142:51:28Chris Pearson PBV45MMethley2:51:282:51:2812.0 
1152:51:33Flora Skidmore SBV55WDewsbury2:51:332:17:5712.1 
1162:51:42Ellen Sharpe SENWHyde Park    
1172:51:44Chris Wainman V40MHuddersfield    
1182:51:52Ian Gahagan PBV60MNorthern Masters2:51:522:51:5214.4 
1192:51:54Mark Doyle SBV35MFarsley Flyers2:51:542:43:1812.7 
1202:52:24Lorne Mcneill SBV45MBaildon2:52:242:19:1613.3 
1212:52:41Alan Schofield PBV55MBarnsley H2:52:412:52:4113.8 
1222:52:43Claire Thompson PBV35WSpenborough2:52:432:42:1917.8 
1232:54:05Sandy George SBV50WAckworth2:54:052:50:5314.2 
1242:54:24Robert Greaves SBV45MPudsey Pacers2:54:242:44:194.4 
1252:54:29Tony George V50M     
1262:55:19Emma Dooley SBV40WNidd Valley2:55:192:52:4311.5 
1272:55:24Emma Dunn PBV45WTadcaster2:55:242:55:2414.8 
1282:57:24Isobel Webster PBSENWKirkstall2:57:242:57:2414.9 
1292:58:04Jan Michl SENM     
1302:58:14Emma David PBV40WNidd Valley2:58:142:58:1415.8 
1312:58:48Richard Bell V50MWetherby    
1322:58:49Wayne Avery PBV35MHorsforth Harriers2:58:492:58:4926.5 
1332:59:12Jackie Russell PBV40WMethley2:59:122:59:1219.8 
1342:59:37John Atkinson V45M     
1353:00:05Mark Leadbeater SBV50MAckworth3:00:052:46:4210.6 
1363:01:18Tao Liu PBV40WSt. Theresa's3:01:183:01:1816.9 
1373:01:37Louise Siddall PBV45WKimberworth3:01:373:01:3718.6 
1383:02:48Leanne Alston PBSENWQueensbury3:02:483:02:4818.6 
1393:03:11Steven Pilling  V50MDewsbury2:24:132:24:139.7 
1403:03:14Amy Linley PBSENWDewsbury3:03:143:03:149.7 
1413:05:12Nicola Forwood PBSENWHyde Park Harriers3:05:123:05:1217.4Click your Clock logo
1423:05:38Alister Robson SBV45MFetch Everyone3:05:382:43:2510.4Click your Clock logo
1433:06:07Elizabeth Nairn SBSENWSelby3:06:072:17:045.1 
1443:06:37Emma Kettlewell PBSENWNidd Valley3:06:373:06:3725.0 
1453:06:52Paul Baker SBSENMSelby3:06:523:03:0117.5 
1463:07:50Adam Rahnavard SENM     
1473:08:08Richard Cooper SBV40MSt. Theresa's3:08:082:53:4115.3 
1483:09:05Karen Bowman SBV40WUnattached3:09:052:34:449.4 
1493:09:59Julie Hepworth SBV40WQueensbury3:09:593:01:3315.6 
1503:10:14Joanne Loftus SBV40WSt. Theresa's3:10:143:09:2813.8 
1513:10:59Debbie Bland SBV60WEccleshill3:10:592:53:1016.3 
1523:11:34Martin Wright V55MBfd Airedale    
1533:11:34Mohanlal Mistry PBV55MSaltaire Striders3:11:343:11:3418.4 
1543:12:04Steve Laffey V55M     
1553:12:08Vicky Webb V45W     
1563:14:51Adam Beesting  V35MFarsley Flyers2:50:342:50:3415.1 
1573:16:35Gail Wrangles SBV45WAckworth3:16:352:53:5115.8 
1583:17:06Lindi Day  V40WFitmums & Friends3:11:302:53:4022.0 
1593:23:35Sohail Miran V45MBfd Airedale    
1603:24:52Helen Fenton SBV50WSt. Theresa's3:24:523:22:3318.4 
1613:24:52Shaun Loftus SBV50MSt. Theresa's3:24:523:16:5117.1 
1623:28:53Tania Leung V35W     
1633:28:53Dom Charkin PBV40MFarsley Flyers3:28:533:28:5314.6 
1643:29:20Lee Shorrock SENM     
1653:29:29Amie Gardner SBSENWAckworth3:29:293:12:3915.7 
1663:29:29Sarah Rose PBV45WAckworth3:29:293:29:2919.5 
1673:30:33John Flanaghan SENM     
1683:31:23Anne Worrall PBV45WValley Striders3:31:233:31:2320.9 
1693:31:57Jenny Mynett SBV35WAirecentre Pacers3:31:573:19:0629.1 
1703:33:12Gareth Tucker SENM     
1713:36:42Robin Coghlan SBV50MRoundhay Runners3:36:423:34:4416.4 
1723:41:12Philip Robinson SBV50MQueensbury3:41:122:47:4039.0 
1733:54:37Stephanie Ramskill V45W     
1743:54:37Neil Stearne PBV50MMethley3:54:373:54:3719.3 
1753:54:37Kevin Chippendale SBV60MAckworth/West Yorkshire Police3:54:373:10:1214.0 
1764:02:10Sarah Pay PBV40WFitmums & Friends4:02:104:02:1037.2 
1774:02:10Clare Rex PBV45WFitmums & Friends4:02:104:02:1030.7 
1784:06:30Julie Wilkinson PBV35WBramley Breezers4:06:304:06:3027.4 
1794:06:30Nicola Morter V35W     
1804:08:58Kate Holliday V40W